createdAt,value
2018-09-30T00:00:20.933Z,0
2018-09-30T00:01:30.620Z,0
2018-09-30T00:02:40.562Z,0
2018-09-30T00:03:50.501Z,0
2018-09-30T00:05:00.449Z,0
2018-09-30T00:06:10.124Z,0
2018-09-30T00:07:19.816Z,0
2018-09-30T00:08:29.748Z,0
2018-09-30T00:09:39.435Z,0
2018-09-30T00:10:49.364Z,0
2018-09-30T00:11:59.309Z,0
2018-09-30T00:13:09.253Z,0
2018-09-30T00:14:19.196Z,0
2018-09-30T00:15:28.641Z,0
2018-09-30T00:16:38.619Z,0
2018-09-30T00:17:48.576Z,0
2018-09-30T00:18:58.010Z,0
2018-09-30T00:20:07.692Z,0
2018-09-30T00:21:17.365Z,0
2018-09-30T00:22:27.307Z,0
2018-09-30T00:23:37.259Z,0
2018-09-30T00:24:47.199Z,0
2018-09-30T00:25:56.887Z,0
2018-09-30T00:27:06.812Z,0
2018-09-30T00:28:16.490Z,0
2018-09-30T00:29:26.442Z,0
2018-09-30T00:30:36.379Z,0
2018-09-30T00:31:46.328Z,0
2018-09-30T00:32:56.288Z,0
2018-09-30T00:34:06.236Z,0
2018-09-30T00:35:16.193Z,0
2018-09-30T00:36:25.969Z,0
2018-09-30T00:37:35.987Z,0
2018-09-30T00:38:45.663Z,0
2018-09-30T00:39:55.614Z,0
2018-09-30T00:41:05.293Z,0
2018-09-30T00:42:15.254Z,0
2018-09-30T00:43:24.691Z,0
2018-09-30T00:44:34.629Z,0
2018-09-30T00:45:44.297Z,0
2018-09-30T00:46:54.231Z,0
2018-09-30T00:48:04.171Z,0
2018-09-30T00:49:13.843Z,0
2018-09-30T00:50:23.774Z,0
2018-09-30T00:51:33.462Z,0
2018-09-30T00:52:43.414Z,0
2018-09-30T00:53:53.346Z,0
2018-09-30T00:55:03.283Z,0
2018-09-30T00:56:13.230Z,0
2018-09-30T00:57:22.920Z,0
2018-09-30T00:58:32.602Z,0
2018-09-30T00:59:42.283Z,0
2018-09-30T01:00:52.237Z,0
2018-09-30T01:02:01.911Z,0
2018-09-30T01:03:11.852Z,0
2018-09-30T01:04:21.788Z,0
2018-09-30T01:05:31.207Z,0
2018-09-30T01:06:41.124Z,0
2018-09-30T01:07:51.063Z,0
2018-09-30T01:09:00.751Z,0
2018-09-30T01:10:10.688Z,0
2018-09-30T01:11:20.363Z,0
2018-09-30T01:12:30.307Z,0
2018-09-30T01:13:40.258Z,0
2018-09-30T01:14:50.233Z,0
2018-09-30T01:16:00.171Z,0
2018-09-30T01:17:10.108Z,0
2018-09-30T01:18:20.045Z,0
2018-09-30T01:19:29.981Z,0
2018-09-30T01:20:39.667Z,0
2018-09-30T01:21:49.349Z,0
2018-09-30T01:22:59.045Z,0
2018-09-30T01:24:08.731Z,0
2018-09-30T01:25:18.676Z,0
2018-09-30T01:26:28.611Z,0
2018-09-30T01:27:38.540Z,0
2018-09-30T01:28:48.475Z,0
2018-09-30T01:29:58.147Z,0
2018-09-30T01:31:08.095Z,0
2018-09-30T01:32:18.025Z,0
2018-09-30T01:33:27.705Z,0
2018-09-30T01:34:37.652Z,0
2018-09-30T01:35:47.589Z,0
2018-09-30T01:36:57.273Z,0
2018-09-30T01:38:07.228Z,0
2018-09-30T01:39:16.918Z,0
2018-09-30T01:40:26.607Z,0
2018-09-30T01:41:36.535Z,0
2018-09-30T01:42:45.971Z,0
2018-09-30T01:43:55.661Z,0
2018-09-30T01:45:05.606Z,0
2018-09-30T01:46:15.287Z,0
2018-09-30T01:47:25.220Z,0
2018-09-30T01:48:35.153Z,0
2018-09-30T01:49:45.091Z,0
2018-09-30T01:50:55.028Z,0
2018-09-30T01:52:04.716Z,0
2018-09-30T01:53:14.387Z,0
2018-09-30T01:54:24.325Z,0
2018-09-30T01:55:34.258Z,0
2018-09-30T01:56:44.195Z,0
2018-09-30T01:57:54.123Z,0
2018-09-30T01:59:03.805Z,0
2018-09-30T02:00:13.744Z,0
2018-09-30T02:01:23.165Z,0
2018-09-30T02:02:32.598Z,0
2018-09-30T02:03:42.544Z,0
2018-09-30T02:04:52.546Z,0
2018-09-30T02:06:02.490Z,0
2018-09-30T02:07:12.426Z,0
2018-09-30T02:08:22.106Z,0
2018-09-30T02:09:32.034Z,0
2018-09-30T02:10:41.988Z,0
2018-09-30T02:11:51.924Z,0
2018-09-30T02:13:01.625Z,0
2018-09-30T02:14:11.565Z,0
2018-09-30T02:15:21.496Z,0
2018-09-30T02:16:30.924Z,0
2018-09-30T02:17:40.603Z,0
2018-09-30T02:18:50.539Z,0
2018-09-30T02:20:00.471Z,0
2018-09-30T02:21:10.434Z,0
2018-09-30T02:22:20.360Z,0
2018-09-30T02:23:30.038Z,0
2018-09-30T02:24:39.981Z,0
2018-09-30T02:25:49.666Z,0
2018-09-30T02:26:59.610Z,0
2018-09-30T02:28:09.553Z,0
2018-09-30T02:29:19.229Z,0
2018-09-30T02:30:28.918Z,0
2018-09-30T02:31:38.669Z,0
2018-09-30T02:32:48.610Z,0
2018-09-30T02:33:58.568Z,0
2018-09-30T02:35:07.992Z,0
2018-09-30T02:36:17.669Z,0
2018-09-30T02:37:27.627Z,0
2018-09-30T02:38:37.567Z,0
2018-09-30T02:39:47.525Z,0
2018-09-30T02:40:57.208Z,0
2018-09-30T02:42:07.146Z,0
2018-09-30T02:43:17.084Z,0
2018-09-30T02:44:27.019Z,0
2018-09-30T02:45:36.977Z,0
2018-09-30T02:46:46.680Z,0
2018-09-30T02:47:56.102Z,0
2018-09-30T02:49:05.822Z,0
2018-09-30T02:50:15.553Z,0
2018-09-30T02:51:25.472Z,0
2018-09-30T02:52:35.154Z,0
2018-09-30T02:53:44.580Z,0
2018-09-30T02:54:54.513Z,0
2018-09-30T02:56:04.483Z,0
2018-09-30T02:57:14.156Z,0
2018-09-30T02:58:24.098Z,0
2018-09-30T02:59:34.031Z,0
2018-09-30T03:00:43.979Z,0
2018-09-30T03:01:53.679Z,0
2018-09-30T03:03:03.657Z,0
2018-09-30T03:04:13.593Z,0
2018-09-30T03:05:23.542Z,0
2018-09-30T03:06:33.488Z,0
2018-09-30T03:07:43.171Z,0
2018-09-30T03:08:53.096Z,0
2018-09-30T03:10:02.776Z,0
2018-09-30T03:11:12.467Z,0
2018-09-30T03:12:22.406Z,0
2018-09-30T03:13:32.350Z,0
2018-09-30T03:14:42.286Z,0
2018-09-30T03:15:51.963Z,0
2018-09-30T03:17:01.647Z,0
2018-09-30T03:18:11.334Z,0
2018-09-30T03:19:21.279Z,0
2018-09-30T03:20:31.222Z,0
2018-09-30T03:21:40.658Z,0
2018-09-30T03:22:50.576Z,0
2018-09-30T03:24:00.520Z,0
2018-09-30T03:25:09.956Z,0
2018-09-30T03:26:19.908Z,0
2018-09-30T03:27:29.585Z,0
2018-09-30T03:28:39.515Z,0
2018-09-30T03:29:49.465Z,0
2018-09-30T03:30:59.406Z,0
2018-09-30T03:32:09.382Z,0
2018-09-30T03:33:19.329Z,0
2018-09-30T03:34:28.996Z,0
2018-09-30T03:35:38.679Z,0
2018-09-30T03:36:48.610Z,0
2018-09-30T03:37:58.542Z,0
2018-09-30T03:39:08.484Z,0
2018-09-30T03:40:18.411Z,0
2018-09-30T03:41:28.350Z,0
2018-09-30T03:42:38.277Z,0
2018-09-30T03:43:48.215Z,0
2018-09-30T03:44:58.144Z,0
2018-09-30T03:46:08.084Z,0
2018-09-30T03:47:18.022Z,0
2018-09-30T03:48:27.974Z,0
2018-09-30T03:49:37.953Z,0
2018-09-30T03:50:47.897Z,0
2018-09-30T03:51:57.575Z,0
2018-09-30T03:53:07.529Z,0
2018-09-30T03:54:17.464Z,0
2018-09-30T03:55:27.161Z,0
2018-09-30T03:56:37.449Z,0
2018-09-30T03:57:47.548Z,0
2018-09-30T03:58:57.253Z,0
2018-09-30T04:00:06.942Z,0
2018-09-30T04:01:16.383Z,0
2018-09-30T04:02:26.064Z,0
2018-09-30T04:03:36.022Z,0
2018-09-30T04:04:52.306Z,0
2018-09-30T04:06:02.278Z,0
2018-09-30T04:07:11.972Z,0
2018-09-30T04:08:21.899Z,0
2018-09-30T04:09:32.045Z,0
2018-09-30T04:10:42.088Z,0
2018-09-30T04:11:52.018Z,0
2018-09-30T04:13:01.725Z,0
2018-09-30T04:14:11.403Z,0
2018-09-30T04:15:21.344Z,0
2018-09-30T04:16:31.283Z,0
2018-09-30T04:17:41.199Z,0
2018-09-30T04:18:50.876Z,0
2018-09-30T04:20:00.822Z,0
2018-09-30T04:21:10.491Z,0
2018-09-30T04:22:20.429Z,0
2018-09-30T04:23:30.354Z,0
2018-09-30T04:24:40.312Z,0
2018-09-30T04:25:50.259Z,0
2018-09-30T04:27:00.203Z,0
2018-09-30T04:28:10.142Z,0
2018-09-30T04:29:19.831Z,4
2018-09-30T04:30:29.811Z,4
2018-09-30T04:31:39.507Z,0
2018-09-30T04:32:49.447Z,4
2018-09-30T04:33:59.132Z,0
2018-09-30T04:35:09.082Z,4
2018-09-30T04:36:18.492Z,4
2018-09-30T04:37:28.452Z,4
2018-09-30T04:38:38.150Z,8
2018-09-30T04:39:48.102Z,8
2018-09-30T04:40:58.039Z,12
2018-09-30T04:42:08.047Z,16
2018-09-30T04:43:17.738Z,16
2018-09-30T04:44:27.693Z,24
2018-09-30T04:45:37.115Z,28
2018-09-30T04:46:46.796Z,36
2018-09-30T04:47:56.475Z,44
2018-09-30T04:49:06.168Z,56
2018-09-30T04:50:16.188Z,68
2018-09-30T04:51:26.119Z,84
2018-09-30T04:52:36.052Z,104
2018-09-30T04:53:45.742Z,124
2018-09-30T04:54:55.678Z,148
2018-09-30T04:56:05.361Z,172
2018-09-30T04:57:15.313Z,196
2018-09-30T04:58:24.743Z,220
2018-09-30T04:59:34.165Z,248
2018-09-30T05:00:44.110Z,272
2018-09-30T05:01:53.828Z,304
2018-09-30T05:03:03.771Z,340
2018-09-30T05:04:13.724Z,372
2018-09-30T05:05:23.161Z,408
2018-09-30T05:06:32.899Z,448
2018-09-30T05:07:42.575Z,492
2018-09-30T05:08:52.531Z,544
2018-09-30T05:10:02.464Z,592
2018-09-30T05:11:12.180Z,644
2018-09-30T05:12:21.600Z,696
2018-09-30T05:13:31.554Z,756
2018-09-30T05:14:41.489Z,828
2018-09-30T05:15:51.495Z,900
2018-09-30T05:17:01.221Z,980
2018-09-30T05:18:10.897Z,1068
2018-09-30T05:19:20.851Z,1164
2018-09-30T05:20:30.530Z,1260
2018-09-30T05:21:40.485Z,1356
2018-09-30T05:22:50.171Z,1448
2018-09-30T05:24:00.101Z,1544
2018-09-30T05:25:09.791Z,1648
2018-09-30T05:26:19.225Z,1752
2018-09-30T05:27:29.177Z,1856
2018-09-30T05:28:39.115Z,1968
2018-09-30T05:29:48.792Z,2080
2018-09-30T05:30:58.742Z,2188
2018-09-30T05:32:08.179Z,2300
2018-09-30T05:33:18.122Z,2428
2018-09-30T05:34:28.073Z,2560
2018-09-30T05:35:38.006Z,2680
2018-09-30T05:36:47.953Z,2780
2018-09-30T05:37:57.908Z,2864
2018-09-30T05:39:07.861Z,2944
2018-09-30T05:40:17.817Z,3044
2018-09-30T05:41:27.756Z,3144
2018-09-30T05:42:37.810Z,3252
2018-09-30T05:43:47.514Z,3316
2018-09-30T05:44:57.214Z,3372
2018-09-30T05:46:06.883Z,3428
2018-09-30T05:47:16.824Z,3464
2018-09-30T05:48:26.749Z,3500
2018-09-30T05:49:36.445Z,3472
2018-09-30T05:50:46.385Z,3488
2018-09-30T05:51:56.323Z,3588
2018-09-30T05:53:05.996Z,3716
2018-09-30T05:54:15.689Z,3864
2018-09-30T05:55:25.376Z,4000
2018-09-30T05:56:35.336Z,4116
2018-09-30T05:57:45.803Z,4248
2018-09-30T05:58:55.568Z,4404
2018-09-30T06:00:05.508Z,4612
2018-09-30T06:01:15.465Z,4736
2018-09-30T06:02:25.416Z,4864
2018-09-30T06:03:34.582Z,4984
2018-09-30T06:04:44.543Z,5068
2018-09-30T06:05:54.230Z,5132
2018-09-30T06:07:03.925Z,5176
2018-09-30T06:08:13.109Z,5192
2018-09-30T06:09:23.177Z,5180
2018-09-30T06:10:33.291Z,5232
2018-09-30T06:11:43.237Z,5384
2018-09-30T06:12:52.927Z,5512
2018-09-30T06:14:03.021Z,5536
2018-09-30T06:15:12.823Z,5556
2018-09-30T06:16:22.760Z,5684
2018-09-30T06:17:32.448Z,5760
2018-09-30T06:18:42.136Z,5824
2018-09-30T06:19:52.088Z,5872
2018-09-30T06:21:02.021Z,5904
2018-09-30T06:22:11.958Z,5948
2018-09-30T06:23:21.898Z,5984
2018-09-30T06:24:31.864Z,6012
2018-09-30T06:25:41.297Z,6040
2018-09-30T06:26:51.258Z,6052
2018-09-30T06:28:01.183Z,6040
2018-09-30T06:29:10.866Z,6096
2018-09-30T06:30:20.821Z,6196
2018-09-30T06:31:30.542Z,6272
2018-09-30T06:32:40.497Z,6312
2018-09-30T06:33:50.438Z,6344
2018-09-30T06:35:00.369Z,6376
2018-09-30T06:36:10.069Z,6440
2018-09-30T06:37:20.429Z,6476
2018-09-30T06:38:30.363Z,6500
2018-09-30T06:39:40.057Z,6528
2018-09-30T06:40:50.008Z,6548
2018-09-30T06:41:59.695Z,6548
2018-09-30T06:43:09.419Z,6580
2018-09-30T06:44:19.364Z,6632
2018-09-30T06:45:29.502Z,6684
2018-09-30T06:46:39.816Z,6716
2018-09-30T06:47:49.247Z,6756
2018-09-30T06:48:58.942Z,6800
2018-09-30T06:50:08.893Z,6756
2018-09-30T06:51:18.956Z,6840
2018-09-30T06:52:29.038Z,7004
2018-09-30T06:53:38.989Z,7084
2018-09-30T06:54:48.792Z,7092
2018-09-30T06:55:58.477Z,7204
2018-09-30T06:57:08.410Z,7308
2018-09-30T06:58:18.348Z,7408
2018-09-30T06:59:28.028Z,7456
2018-09-30T07:00:37.733Z,7488
2018-09-30T07:01:47.696Z,7532
2018-09-30T07:02:57.373Z,7564
2018-09-30T07:04:07.064Z,7572
2018-09-30T07:05:16.735Z,7604
2018-09-30T07:06:26.680Z,7620
2018-09-30T07:07:36.106Z,7640
2018-09-30T07:08:45.820Z,7724
2018-09-30T07:09:55.778Z,7768
2018-09-30T07:11:05.921Z,7828
2018-09-30T07:12:15.871Z,7936
2018-09-30T07:13:25.797Z,8020
2018-09-30T07:14:35.496Z,7972
2018-09-30T07:15:45.430Z,7772
2018-09-30T07:16:55.440Z,8036
2018-09-30T07:18:05.274Z,8176
2018-09-30T07:19:15.247Z,8264
2018-09-30T07:20:24.676Z,8288
2018-09-30T07:21:34.620Z,8292
2018-09-30T07:22:44.918Z,8316
2018-09-30T07:23:55.013Z,8308
2018-09-30T07:25:04.714Z,8252
2018-09-30T07:26:14.398Z,8264
2018-09-30T07:27:24.332Z,8328
2018-09-30T07:28:34.271Z,8328
2018-09-30T07:29:43.960Z,8284
2018-09-30T07:30:53.644Z,8276
2018-09-30T07:32:03.324Z,8272
2018-09-30T07:33:13.273Z,8276
2018-09-30T07:34:23.229Z,8280
2018-09-30T07:35:33.195Z,8296
2018-09-30T07:36:43.141Z,8300
2018-09-30T07:37:53.122Z,8328
2018-09-30T07:39:03.055Z,8348
2018-09-30T07:40:12.735Z,8368
2018-09-30T07:41:22.674Z,8396
2018-09-30T07:42:32.624Z,8428
2018-09-30T07:43:42.312Z,8464
2018-09-30T07:44:52.262Z,8480
2018-09-30T07:46:02.217Z,8492
2018-09-30T07:47:12.187Z,8524
2018-09-30T07:48:21.885Z,8532
2018-09-30T07:49:31.831Z,8540
2018-09-30T07:50:41.768Z,8568
2018-09-30T07:51:51.724Z,8596
2018-09-30T07:53:01.427Z,8624
2018-09-30T07:54:11.427Z,8656
2018-09-30T07:55:21.378Z,8704
2018-09-30T07:56:30.825Z,8760
2018-09-30T07:57:40.778Z,14220
2018-09-30T07:58:50.477Z,19520
2018-09-30T08:00:00.154Z,20576
2018-09-30T08:01:10.126Z,20160
2018-09-30T08:02:19.807Z,21088
2018-09-30T08:03:29.758Z,21376
2018-09-30T08:04:39.437Z,20864
2018-09-30T08:05:49.129Z,22400
2018-09-30T08:06:59.088Z,22080
2018-09-30T08:08:09.031Z,22656
2018-09-30T08:09:19.014Z,24768
2018-09-30T08:10:28.966Z,24320
2018-09-30T08:11:38.931Z,25408
2018-09-30T08:12:48.881Z,25536
2018-09-30T08:13:58.824Z,27296
2018-09-30T08:15:08.784Z,27136
2018-09-30T08:16:18.809Z,27232
2018-09-30T08:17:28.840Z,28320
2018-09-30T08:18:38.798Z,27360
2018-09-30T08:19:48.744Z,28096
2018-09-30T08:20:58.418Z,29728
2018-09-30T08:22:08.382Z,29568
2018-09-30T08:23:18.351Z,31008
2018-09-30T08:24:28.717Z,31712
2018-09-30T08:25:38.821Z,27616
2018-09-30T08:26:48.786Z,26080
2018-09-30T08:27:58.757Z,27200
2018-09-30T08:29:08.732Z,30976
2018-09-30T08:30:18.675Z,34368
2018-09-30T08:31:28.623Z,37696
2018-09-30T08:32:38.562Z,37344
2018-09-30T08:33:48.524Z,36384
2018-09-30T08:34:58.240Z,38336
2018-09-30T08:36:07.945Z,39136
2018-09-30T08:37:17.898Z,38816
2018-09-30T08:38:27.871Z,39808
2018-09-30T08:39:37.921Z,39552
2018-09-30T08:40:48.067Z,39552
2018-09-30T08:41:57.785Z,39936
2018-09-30T08:43:07.480Z,41920
2018-09-30T08:44:17.514Z,41920
2018-09-30T08:45:26.852Z,41440
2018-09-30T08:46:37.001Z,43040
2018-09-30T08:47:47.055Z,44544
2018-09-30T08:48:57.257Z,45472
2018-09-30T08:50:07.227Z,44960
2018-09-30T08:51:17.166Z,44832
2018-09-30T08:52:26.903Z,46208
2018-09-30T08:53:36.597Z,46432
2018-09-30T08:54:46.547Z,47136
2018-09-30T08:55:56.593Z,50272
2018-09-30T08:57:06.620Z,49536
2018-09-30T08:58:16.565Z,50016
2018-09-30T08:59:26.267Z,49344
2018-09-30T09:00:36.243Z,51712
2018-09-30T09:01:45.952Z,50848
2018-09-30T09:02:55.983Z,52480
2018-09-30T09:04:05.995Z,52960
2018-09-30T09:05:15.955Z,54976
2018-09-30T09:06:25.925Z,54176
2018-09-30T09:07:35.930Z,55360
2018-09-30T09:08:45.616Z,56096
2018-09-30T09:09:56.046Z,55680
2018-09-30T09:11:06.262Z,58176
2018-09-30T09:12:15.964Z,59456
2018-09-30T09:13:25.900Z,53952
2018-09-30T09:14:35.862Z,53632
2018-09-30T09:15:45.943Z,58720
2018-09-30T09:16:55.645Z,63680
2018-09-30T09:18:05.604Z,62112
2018-09-30T09:19:15.301Z,60384
2018-09-30T09:20:25.254Z,60960
2018-09-30T09:21:34.963Z,62080
2018-09-30T09:22:45.039Z,60384
2018-09-30T09:23:55.124Z,62496
2018-09-30T09:25:05.085Z,65632
2018-09-30T09:26:15.056Z,65184
2018-09-30T09:27:25.002Z,65856
2018-09-30T09:28:34.964Z,67552
2018-09-30T09:29:44.664Z,68352
2018-09-30T09:30:54.371Z,67488
2018-09-30T09:32:04.062Z,68032
2018-09-30T09:33:14.624Z,68864
2018-09-30T09:34:24.586Z,74240
2018-09-30T09:35:34.542Z,74752
2018-09-30T09:36:44.249Z,71520
2018-09-30T09:37:53.938Z,72992
2018-09-30T09:39:03.927Z,75680
2018-09-30T09:40:13.886Z,71936
2018-09-30T09:41:23.853Z,73088
2018-09-30T09:42:33.547Z,74688
2018-09-30T09:43:43.514Z,74784
2018-09-30T09:44:53.454Z,77728
2018-09-30T09:46:03.416Z,81664
2018-09-30T09:47:13.786Z,83424
2018-09-30T09:48:23.747Z,79104
2018-09-30T09:49:33.447Z,78496
2018-09-30T09:50:43.413Z,82112
2018-09-30T09:51:53.111Z,79392
2018-09-30T09:53:03.052Z,83872
2018-09-30T09:54:13.027Z,82592
2018-09-30T09:55:22.985Z,81312
2018-09-30T09:56:32.962Z,82560
2018-09-30T09:57:42.658Z,85696
2018-09-30T09:58:52.815Z,84800
2018-09-30T10:00:03.003Z,89760
2018-09-30T10:01:12.969Z,91584
2018-09-30T10:02:22.922Z,90976
2018-09-30T10:03:32.626Z,85344
2018-09-30T10:04:42.595Z,83840
2018-09-30T10:05:52.531Z,89760
2018-09-30T10:07:02.245Z,91168
2018-09-30T10:08:12.182Z,96448
2018-09-30T10:09:22.279Z,95136
2018-09-30T10:10:32.244Z,92544
2018-09-30T10:11:41.692Z,94368
2018-09-30T10:12:51.647Z,93024
2018-09-30T10:14:01.088Z,90784
2018-09-30T10:15:11.040Z,96928
2018-09-30T10:16:21.044Z,96352
2018-09-30T10:17:30.740Z,94016
2018-09-30T10:18:40.720Z,91392
2018-09-30T10:19:50.680Z,91808
2018-09-30T10:21:00.647Z,94272
2018-09-30T10:22:10.601Z,96640
2018-09-30T10:23:20.085Z,94720
2018-09-30T10:24:30.043Z,94912
2018-09-30T10:25:40.019Z,96928
2018-09-30T10:26:49.987Z,97056
2018-09-30T10:28:00.064Z,104832
2018-09-30T10:29:10.042Z,101856
2018-09-30T10:30:20.032Z,102016
2018-09-30T10:31:29.736Z,106432
2018-09-30T10:32:39.692Z,101696
2018-09-30T10:33:49.649Z,103296
2018-09-30T10:34:59.603Z,94976
2018-09-30T10:36:09.324Z,96544
2018-09-30T10:37:19.272Z,99328
2018-09-30T10:38:29.420Z,104416
2018-09-30T10:39:39.766Z,109088
2018-09-30T10:40:49.462Z,107200
2018-09-30T10:41:59.431Z,109984
2018-09-30T10:43:09.380Z,105792
2018-09-30T10:44:19.072Z,107136
2018-09-30T10:45:28.779Z,102240
2018-09-30T10:46:38.753Z,103520
2018-09-30T10:47:48.463Z,104832
2018-09-30T10:48:58.168Z,99584
2018-09-30T10:50:08.123Z,109408
2018-09-30T10:51:17.822Z,106752
2018-09-30T10:52:27.791Z,102080
2018-09-30T10:53:37.754Z,111200
2018-09-30T10:54:47.734Z,114656
2018-09-30T10:55:57.690Z,114144
2018-09-30T10:57:07.640Z,114176
2018-09-30T10:58:17.611Z,102688
2018-09-30T10:59:27.617Z,107104
2018-09-30T11:00:37.584Z,105312
2018-09-30T11:01:47.275Z,107552
2018-09-30T11:02:57.230Z,113248
2018-09-30T11:04:06.948Z,121568
2018-09-30T11:05:16.924Z,113600
2018-09-30T11:06:26.899Z,117472
2018-09-30T11:07:36.610Z,121024
2018-09-30T11:08:46.583Z,108608
2018-09-30T11:09:56.733Z,119200
2018-09-30T11:11:06.561Z,111616
2018-09-30T11:12:16.257Z,114848
2018-09-30T11:13:25.945Z,112096
2018-09-30T11:14:35.916Z,110400
2018-09-30T11:15:45.623Z,110496
2018-09-30T11:16:55.591Z,109312
2018-09-30T11:18:05.540Z,115008
2018-09-30T11:19:15.236Z,115648
2018-09-30T11:20:24.939Z,113600
2018-09-30T11:21:34.902Z,118432
2018-09-30T11:22:44.993Z,120416
2018-09-30T11:23:54.965Z,122432
2018-09-30T11:25:04.670Z,115488
2018-09-30T11:26:14.142Z,116736
2018-09-30T11:27:24.123Z,115360
2018-09-30T11:28:34.117Z,111904
2018-09-30T11:29:44.062Z,114176
2018-09-30T11:30:53.766Z,120832
2018-09-30T11:32:04.022Z,116256
2018-09-30T11:33:13.989Z,126848
2018-09-30T11:34:23.693Z,122688
2018-09-30T11:35:33.408Z,113280
2018-09-30T11:36:43.370Z,107456
2018-09-30T11:37:53.089Z,111680
2018-09-30T11:39:02.794Z,114176
2018-09-30T11:40:12.506Z,114784
2018-09-30T11:41:22.433Z,126752
2018-09-30T11:42:32.396Z,119232
2018-09-30T11:43:42.159Z,121184
2018-09-30T11:44:52.123Z,123968
2018-09-30T11:46:01.829Z,111296
2018-09-30T11:47:11.012Z,107808
2018-09-30T11:48:20.706Z,113088
2018-09-30T11:49:30.688Z,113856
2018-09-30T11:50:40.643Z,113696
2018-09-30T11:51:50.584Z,112160
2018-09-30T11:53:00.550Z,123264
2018-09-30T11:54:10.534Z,113632
2018-09-30T11:55:20.509Z,114624
2018-09-30T11:56:30.480Z,116096
2018-09-30T11:57:40.193Z,112064
2018-09-30T11:58:50.159Z,113152
2018-09-30T12:00:00.157Z,125024
2018-09-30T12:01:10.290Z,128992
2018-09-30T12:02:19.921Z,119552
2018-09-30T12:03:30.064Z,119136
2018-09-30T12:04:40.031Z,114048
2018-09-30T12:05:50.040Z,115648
2018-09-30T12:07:00.008Z,116704
2018-09-30T12:08:09.703Z,119808
2018-09-30T12:09:19.400Z,111296
2018-09-30T12:10:28.828Z,120032
2018-09-30T12:11:38.789Z,115680
2018-09-30T12:12:48.745Z,113856
2018-09-30T12:13:58.471Z,125280
2018-09-30T12:15:08.422Z,115264
2018-09-30T12:16:18.378Z,117280
2018-09-30T12:17:28.343Z,120704
2018-09-30T12:18:38.417Z,115328
2018-09-30T12:19:48.473Z,133312
2018-09-30T12:20:58.187Z,128128
2018-09-30T12:22:08.156Z,133376
2018-09-30T12:23:18.112Z,130880
2018-09-30T12:24:27.568Z,126816
2018-09-30T12:25:37.524Z,131872
2018-09-30T12:26:47.251Z,124448
2018-09-30T12:27:57.195Z,129312
2018-09-30T12:29:07.166Z,127104
2018-09-30T12:30:17.143Z,123360
2018-09-30T12:31:27.126Z,124512
2018-09-30T12:32:37.098Z,131744
2018-09-30T12:33:46.827Z,126432
2018-09-30T12:34:56.542Z,132224
2018-09-30T12:36:06.244Z,138848
2018-09-30T12:37:16.198Z,125056
2018-09-30T12:38:26.162Z,126400
2018-09-30T12:39:36.136Z,124992
2018-09-30T12:40:45.837Z,116544
2018-09-30T12:41:55.793Z,122464
2018-09-30T12:43:05.742Z,123456
2018-09-30T12:44:15.687Z,117088
2018-09-30T12:45:25.673Z,126464
2018-09-30T12:46:35.648Z,138944
2018-09-30T12:47:45.613Z,124768
2018-09-30T12:48:55.694Z,132704
2018-09-30T12:50:05.658Z,129504
2018-09-30T12:51:15.358Z,125280
2018-09-30T12:52:25.068Z,126688
2018-09-30T12:53:35.022Z,119232
2018-09-30T12:54:44.986Z,121344
2018-09-30T12:55:54.953Z,117280
2018-09-30T12:57:04.662Z,124800
2018-09-30T12:58:15.133Z,129312
2018-09-30T12:59:25.106Z,120544
2018-09-30T13:00:35.073Z,129504
2018-09-30T13:01:44.771Z,117920
2018-09-30T13:02:54.737Z,107616
2018-09-30T13:04:04.708Z,107072
2018-09-30T13:05:14.401Z,107008
2018-09-30T13:06:24.369Z,125632
2018-09-30T13:07:34.066Z,117184
2018-09-30T13:08:43.774Z,111040
2018-09-30T13:09:53.740Z,127776
2018-09-30T13:11:03.691Z,127104
2018-09-30T13:12:13.647Z,121920
2018-09-30T13:13:23.339Z,128128
2018-09-30T13:14:33.366Z,131648
2018-09-30T13:15:43.118Z,128128
2018-09-30T13:16:53.090Z,125600
2018-09-30T13:18:03.059Z,125728
2018-09-30T13:19:13.015Z,114816
2018-09-30T13:20:23.020Z,115328
2018-09-30T13:21:33.062Z,112544
2018-09-30T13:22:43.035Z,114464
2018-09-30T13:23:53.012Z,118272
2018-09-30T13:25:02.985Z,74432
2018-09-30T13:26:12.695Z,87680
2018-09-30T13:27:22.665Z,116704
2018-09-30T13:28:32.363Z,87584
2018-09-30T13:29:42.341Z,104224
2018-09-30T13:30:52.035Z,158656
2018-09-30T13:32:01.992Z,133088
2018-09-30T13:33:11.439Z,102944
2018-09-30T13:34:21.143Z,107168
2018-09-30T13:35:31.104Z,115424
2018-09-30T13:36:41.123Z,109696
2018-09-30T13:37:51.078Z,113568
2018-09-30T13:39:01.040Z,109024
2018-09-30T13:40:11.433Z,112288
2018-09-30T13:41:22.295Z,105568
2018-09-30T13:42:32.512Z,101888
2018-09-30T13:43:42.468Z,104448
2018-09-30T13:44:52.420Z,104192
2018-09-30T13:46:02.235Z,111008
2018-09-30T13:47:12.278Z,104000
2018-09-30T13:48:22.239Z,96448
2018-09-30T13:49:32.195Z,104480
2018-09-30T13:50:41.918Z,93120
2018-09-30T13:51:53.046Z,97824
2018-09-30T13:53:07.501Z,98304
2018-09-30T13:54:25.153Z,103232
2018-09-30T13:55:37.907Z,88896
2018-09-30T13:56:54.139Z,104704
2018-09-30T13:58:04.118Z,97024
2018-09-30T13:59:13.815Z,102752
2018-09-30T14:00:23.807Z,109568
2018-09-30T14:01:33.520Z,107808
2018-09-30T14:02:43.502Z,101792
2018-09-30T14:03:53.456Z,107328
2018-09-30T14:05:03.409Z,103616
2018-09-30T14:06:12.873Z,101696
2018-09-30T14:07:22.833Z,102176
2018-09-30T14:08:32.801Z,99328
2018-09-30T14:09:42.774Z,106528
2018-09-30T14:10:52.493Z,98112
2018-09-30T14:12:02.216Z,101120
2018-09-30T14:13:12.197Z,100864
2018-09-30T14:14:22.164Z,88064
2018-09-30T14:15:32.134Z,97856
2018-09-30T14:16:41.838Z,97632
2018-09-30T14:17:51.285Z,94912
2018-09-30T14:19:01.260Z,96224
2018-09-30T14:20:11.224Z,95936
2018-09-30T14:21:21.195Z,104928
2018-09-30T14:22:31.395Z,99872
2018-09-30T14:23:41.350Z,98624
2018-09-30T14:24:51.318Z,99488
2018-09-30T14:26:01.293Z,90944
2018-09-30T14:27:11.412Z,96832
2018-09-30T14:28:21.585Z,103328
2018-09-30T14:29:31.295Z,99552
2018-09-30T14:30:41.256Z,98112
2018-09-30T14:31:51.223Z,87232
2018-09-30T14:33:00.937Z,94752
2018-09-30T14:34:11.165Z,95808
2018-09-30T14:35:21.310Z,97248
2018-09-30T14:36:31.250Z,97792
2018-09-30T14:37:40.956Z,94048
2018-09-30T14:38:50.920Z,96960
2018-09-30T14:40:00.638Z,78464
2018-09-30T14:41:10.613Z,63264
2018-09-30T14:42:20.338Z,78080
2018-09-30T14:43:30.297Z,69248
2018-09-30T14:44:40.271Z,81280
2018-09-30T14:45:50.234Z,77376
2018-09-30T14:47:00.195Z,83168
2018-09-30T14:48:10.379Z,79968
2018-09-30T14:49:20.559Z,90080
2018-09-30T14:50:30.505Z,93344
2018-09-30T14:51:40.201Z,89696
2018-09-30T14:52:50.148Z,90752
2018-09-30T14:54:00.371Z,83360
2018-09-30T14:55:10.468Z,85536
2018-09-30T14:56:20.179Z,82304
2018-09-30T14:57:29.369Z,86752
2018-09-30T14:58:39.330Z,80320
2018-09-30T14:59:49.456Z,82112
2018-09-30T15:00:58.980Z,82368
2018-09-30T15:02:08.699Z,81280
2018-09-30T15:03:18.129Z,78336
2018-09-30T15:04:28.088Z,80672
2018-09-30T15:05:38.062Z,76640
2018-09-30T15:06:48.051Z,72992
2018-09-30T15:07:58.033Z,73376
2018-09-30T15:09:07.716Z,75776
2018-09-30T15:10:17.686Z,74240
2018-09-30T15:11:27.671Z,76064
2018-09-30T15:12:37.637Z,70336
2018-09-30T15:13:47.610Z,71424
2018-09-30T15:14:57.332Z,66848
2018-09-30T15:16:07.294Z,68544
2018-09-30T15:17:16.990Z,66464
2018-09-30T15:18:26.769Z,64032
2018-09-30T15:19:36.726Z,68000
2018-09-30T15:20:46.675Z,62080
2018-09-30T15:21:56.636Z,66048
2018-09-30T15:23:06.592Z,60512
2018-09-30T15:24:16.555Z,63520
2018-09-30T15:25:26.544Z,54656
2018-09-30T15:26:36.254Z,56320
2018-09-30T15:27:46.210Z,58464
2018-09-30T15:28:56.175Z,55872
2018-09-30T15:30:06.159Z,60192
2018-09-30T15:31:15.865Z,54080
2018-09-30T15:32:25.308Z,51616
2018-09-30T15:33:35.265Z,49760
2018-09-30T15:34:45.221Z,45824
2018-09-30T15:35:54.683Z,41600
2018-09-30T15:37:04.635Z,37408